Time;durP1;ratioP1;P1;durP2;ratioP2;P2;SDS_P1;SDS_P2;PMS_P1;PMS_P2;Temp;Humidity;BMP_temperature;BMP_pressure;BME280_temperature;BME280_humidity;BME280_pressure;Samples;Min_cycle;Max_cycle;Signal;HPM_P1;HPM_P2
2023/02/03 00:01:12;;;;;;;10.43;0.40;;;;;;;5.17;56.96;101819.44;4942689;28;20892;-68
2023/02/03 00:03:37;;;;;;;3.17;0.30;;;;;;;4.90;58.01;101828.09;4940478;28;20051;-67
2023/02/03 00:06:03;;;;;;;5.93;0.63;;;;;;;4.63;58.61;101832.41;4947083;28;20034;-67
2023/02/03 00:08:29;;;;;;;7.32;0.43;;;;;;;4.78;58.13;101840.19;4939792;28;20097;-67
2023/02/03 00:10:55;;;;;;;10.25;0.85;;;;;;;5.09;57.52;101835.00;4941766;28;20035;-70
2023/02/03 00:13:21;;;;;;;6.38;0.65;;;;;;;5.24;56.84;101834.97;4944706;28;20530;-66
2023/02/03 00:15:47;;;;;;;2.22;0.35;;;;;;;4.95;58.00;101834.16;4951337;28;20685;-65
2023/02/03 00:18:12;;;;;;;5.18;0.55;;;;;;;5.14;57.22;101812.53;4943152;28;20254;-67
2023/02/03 00:20:38;;;;;;;5.60;0.60;;;;;;;5.22;56.96;101822.88;4943677;28;20070;-69
2023/02/03 00:23:09;;;;;;;6.00;0.30;;;;;;;5.29;56.84;101816.81;4942924;28;20411;-74
2023/02/03 00:25:34;;;;;;;6.18;0.40;;;;;;;5.15;56.83;101824.63;4945357;28;20085;-75
2023/02/03 00:28:00;;;;;;;4.25;0.47;;;;;;;5.30;56.42;101826.34;4948290;28;20077;-77
2023/02/03 00:30:27;;;;;;;4.28;0.30;;;;;;;5.20;56.86;101815.09;4946958;28;20031;-77
2023/02/03 00:32:52;;;;;;;2.53;1.02;;;;;;;5.32;56.47;101821.13;4943795;28;20571;-68
2023/02/03 00:35:19;;;;;;;4.45;0.60;;;;;;;5.33;56.68;101812.50;4942970;28;20043;-68
2023/02/03 00:37:52;;;;;;;3.70;0.32;;;;;;;5.31;56.44;101814.22;4944897;28;20074;-67
2023/02/03 00:40:22;;;;;;;6.57;1.30;;;;;;;5.51;55.74;101812.44;4941122;28;20035;-69
2023/02/03 00:42:47;;;;;;;1.98;0.57;;;;;;;5.57;55.95;101807.22;4949814;28;20215;-68
2023/02/03 00:45:13;;;;;;;3.03;0.63;;;;;;;5.01;56.59;101814.28;4945812;28;20532;-66
2023/02/03 00:47:38;;;;;;;2.50;0.50;;;;;;;5.13;56.21;101813.41;4938779;28;20055;-68
2023/02/03 00:50:05;;;;;;;5.18;0.50;;;;;;;4.98;56.46;101800.47;4977191;28;20535;-65
2023/02/03 00:52:31;;;;;;;6.75;0.95;;;;;;;5.07;56.15;101768.50;4940732;28;20448;-67
2023/02/03 00:54:56;;;;;;;9.77;0.40;;;;;;;4.81;57.35;101785.81;4950482;28;20070;-68
2023/02/03 00:57:22;;;;;;;3.17;0.30;;;;;;;5.04;56.51;101774.56;4942195;28;20206;-67
2023/02/03 00:59:47;;;;;;;5.68;0.47;;;;;;;5.26;56.21;101770.19;4939812;28;20035;-67
2023/02/03 01:02:13;;;;;;;3.13;0.30;;;;;;;5.47;55.31;101764.03;4942969;28;20531;-70
2023/02/03 01:04:39;;;;;;;7.15;0.45;;;;;;;5.23;56.11;101747.72;4940970;28;20945;-69
2023/02/03 01:07:04;;;;;;;4.97;0.40;;;;;;;5.06;56.48;101765.06;4945101;28;20113;-68
2023/02/03 01:09:34;;;;;;;9.25;0.40;;;;;;;5.08;56.43;101759.84;4971060;28;20057;-69
2023/02/03 01:11:59;;;;;;;3.60;0.50;;;;;;;5.43;55.32;101751.94;4948583;28;20665;-68
2023/02/03 01:14:25;;;;;;;4.28;0.50;;;;;;;4.93;56.46;101747.81;4970654;28;20041;-68
2023/02/03 01:16:50;;;;;;;3.55;0.55;;;;;;;5.28;55.76;101732.16;4946255;28;20023;-76
2023/02/03 01:19:16;;;;;;;11.75;0.63;;;;;;;5.69;54.79;101748.38;4943351;28;20345;-74
2023/02/03 01:21:42;;;;;;;3.83;0.50;;;;;;;4.78;56.34;101731.38;4943625;28;20039;-73
2023/02/03 01:24:08;;;;;;;4.40;0.40;;;;;;;4.81;56.60;101731.41;4979069;28;20042;-74
2023/02/03 01:26:34;;;;;;;2.50;0.40;;;;;;;5.33;55.51;101733.00;4992834;28;20049;-74
2023/02/03 01:29:02;;;;;;;4.50;0.55;;;;;;;5.12;55.61;101717.50;4946866;28;20043;-75
2023/02/03 01:31:33;;;;;;;12.75;0.50;;;;;;;5.23;55.40;101724.41;4941166;28;20405;-76
2023/02/03 01:33:59;;;;;;;3.13;0.35;;;;;;;4.97;56.17;101710.69;4945834;28;20555;-75
2023/02/03 01:36:27;;;;;;;8.00;0.45;;;;;;;4.73;56.12;101709.81;4941157;28;20042;-74
2023/02/03 01:38:53;;;;;;;5.15;0.63;;;;;;;4.96;56.05;101734.84;4941337;28;20042;-75
2023/02/03 01:41:23;;;;;;;6.88;0.60;;;;;;;4.57;56.99;101736.63;4949930;28;20035;-75
2023/02/03 01:43:51;;;;;;;5.90;1.05;;;;;;;5.28;55.61;101747.72;4948175;28;20046;-75
2023/02/03 01:46:21;;;;;;;3.97;0.30;;;;;;;5.17;55.53;101734.78;4944269;28;20035;-75
2023/02/03 01:48:47;;;;;;;7.70;0.68;;;;;;;5.17;55.03;101731.34;4943044;28;20419;-75
2023/02/03 01:51:12;;;;;;;11.43;1.33;;;;;;;4.66;56.73;101754.75;4943926;28;20031;-71
2023/02/03 01:53:38;;;;;;;8.32;1.38;;;;;;;5.45;55.10;101768.38;4954175;28;20700;-72
2023/02/03 01:56:05;;;;;;;8.63;1.00;;;;;;;5.03;55.81;101742.59;4949726;28;20049;-76
2023/02/03 01:58:38;;;;;;;5.10;0.30;;;;;;;5.25;55.29;101753.75;4942778;28;20046;-75
2023/02/03 02:01:04;;;;;;;9.65;0.75;;;;;;;5.14;55.70;101737.38;4946356;28;20039;-73
2023/02/03 02:03:49;;;;;;;8.07;0.30;;;;;;;4.83;56.22;101724.50;4946095;28;20271;-72
2023/02/03 02:06:15;;;;;;;2.00;0.30;;;;;;;5.30;55.30;101727.84;4949635;28;20248;-72
2023/02/03 02:08:45;;;;;;;3.38;0.47;;;;;;;4.75;56.40;101736.59;4945702;28;20050;-71
2023/02/03 02:11:10;;;;;;;3.00;0.35;;;;;;;5.01;56.10;101728.78;4945220;28;20035;-72
2023/02/03 02:13:42;;;;;;;7.03;0.57;;;;;;;5.07;56.04;101721.84;4952953;28;20483;-72
2023/02/03 02:16:16;;;;;;;6.38;0.57;;;;;;;5.10;55.72;101733.09;4947565;28;20039;-73
2023/02/03 02:19:25;;;;;;;11.32;0.60;;;;;;;4.96;56.61;101734.84;4964436;28;20130;-71
2023/02/03 02:22:10;;;;;;;5.93;1.02;;;;;;;4.90;56.73;101709.84;4969790;28;20118;-72
2023/02/03 02:24:52;;;;;;;3.20;0.85;;;;;;;4.88;57.14;101710.69;4966958;28;20873;-72
2023/02/03 02:27:48;;;;;;;5.95;1.13;;;;;;;4.91;57.65;101740.03;4966248;28;20066;-73
2023/02/03 02:30:41;;;;;;;4.95;1.00;;;;;;;4.89;58.46;101723.63;4947128;28;20031;-70
2023/02/03 02:33:14;;;;;;;9.05;1.00;;;;;;;4.68;58.85;101721.94;4974486;28;20476;-70
2023/02/03 02:35:40;;;;;;;3.85;0.40;;;;;;;4.30;60.23;101716.81;4931125;28;20031;-70
2023/02/03 02:38:32;;;;;;;9.68;0.50;;;;;;;4.68;59.51;101703.81;4949677;28;20478;-70
2023/02/03 02:41:20;;;;;;;2.67;0.50;;;;;;;4.22;59.80;101715.06;4937182;28;20294;-70
2023/02/03 02:44:02;;;;;;;4.15;0.52;;;;;;;4.68;59.18;101700.38;4957383;28;20050;-70
2023/02/03 02:46:51;;;;;;;9.05;0.65;;;;;;;4.89;57.95;101691.69;4940342;28;20444;-70
2023/02/03 02:49:31;;;;;;;8.82;1.20;;;;;;;4.72;58.57;101684.81;4938105;28;20049;-71
2023/02/03 02:52:01;;;;;;;3.78;0.95;;;;;;;4.95;57.40;101694.28;4948375;28;20042;-70
2023/02/03 02:54:30;;;;;;;1.50;0.40;;;;;;;4.97;56.70;101677.00;4938776;28;20331;-70
2023/02/03 02:56:59;;;;;;;7.07;0.65;;;;;;;4.36;57.83;101686.59;4939369;28;20034;-70
2023/02/03 02:59:27;;;;;;;5.82;0.32;;;;;;;4.94;56.47;101669.22;4955325;28;20035;-70
2023/02/03 03:01:52;;;;;;;5.47;0.85;;;;;;;5.07;56.26;101676.06;4942748;28;20042;-71
2023/02/03 03:04:23;;;;;;;6.03;0.80;;;;;;;5.25;55.27;101657.84;4938479;28;20600;-72
2023/02/03 03:06:58;;;;;;;8.63;1.08;;;;;;;5.50;54.91;101672.41;4955164;28;20031;-71
2023/02/03 03:09:34;;;;;;;6.72;0.55;;;;;;;5.22;54.77;101628.50;4937005;28;20034;-70
2023/02/03 03:12:14;;;;;;;4.70;0.85;;;;;;;5.33;54.58;101646.59;4949344;28;20276;-71
2023/02/03 03:14:44;;;;;;;2.33;0.40;;;;;;;5.39;54.85;101651.72;4931063;28;20031;-71
2023/02/03 03:17:13;;;;;;;7.00;0.70;;;;;;;5.12;55.00;101651.00;4941623;28;20047;-71
2023/02/03 03:19:45;;;;;;;3.00;0.40;;;;;;;5.47;54.26;101655.13;4940728;28;20031;-70
2023/02/03 03:22:15;;;;;;;6.50;0.73;;;;;;;5.42;54.28;101654.31;4974653;28;20043;-72
2023/02/03 03:24:47;;;;;;;8.20;0.85;;;;;;;4.90;55.83;101652.84;4949909;28;20035;-70
2023/02/03 03:27:25;;;;;;;10.38;1.42;;;;;;;5.09;55.29;101661.38;4947860;28;20078;-71
2023/02/03 03:29:59;;;;;;;12.23;0.88;;;;;;;5.09;55.20;101658.78;4948158;28;20734;-71
2023/02/03 03:32:26;;;;;;;5.38;0.70;;;;;;;4.60;56.40;101653.75;4936949;28;20920;-70
2023/02/03 03:34:53;;;;;;;10.65;1.05;;;;;;;4.67;56.30;101641.66;4951078;28;20067;-71
2023/02/03 03:37:23;;;;;;;9.75;0.75;;;;;;;5.40;54.79;101663.81;4938127;28;20061;-70
2023/02/03 03:39:57;;;;;;;7.68;0.52;;;;;;;5.16;55.23;101665.66;4941280;28;20030;-71
2023/02/03 03:42:39;;;;;;;7.25;0.68;;;;;;;5.19;54.93;101667.38;4945303;28;20340;-70
2023/02/03 03:45:11;;;;;;;10.63;0.52;;;;;;;5.29;54.96;101661.28;4948849;28;20037;-70
2023/02/03 03:47:45;;;;;;;5.88;0.50;;;;;;;5.11;55.37;101648.44;4937684;28;20055;-71
2023/02/03 03:50:15;;;;;;;7.35;0.70;;;;;;;4.90;55.46;101657.13;4942306;28;20039;-71
2023/02/03 03:52:43;;;;;;;5.13;0.95;;;;;;;5.49;54.16;101658.59;4936930;28;20059;-70
2023/02/03 03:55:11;;;;;;;9.85;1.15;;;;;;;5.40;54.39;101637.91;4941123;28;20515;-70
2023/02/03 03:58:01;;;;;;;10.15;0.55;;;;;;;5.05;55.07;101639.78;4937795;28;20055;-72
2023/02/03 04:00:30;;;;;;;6.05;0.68;;;;;;;4.54;56.85;101648.59;4937278;28;20082;-70
2023/02/03 04:03:01;;;;;;;6.88;0.63;;;;;;;4.28;57.40;101667.63;4937762;28;20097;-69
2023/02/03 04:05:27;;;;;;;8.03;0.97;;;;;;;5.30;55.02;101631.91;4939362;28;20036;-70
2023/02/03 04:07:53;;;;;;;9.35;1.35;;;;;;;4.81;56.19;101627.78;4939329;28;20042;-73
2023/02/03 04:10:28;;;;;;;7.57;0.70;;;;;;;5.15;55.35;101622.50;4939983;28;20079;-67
2023/02/03 04:12:53;;;;;;;10.38;0.57;;;;;;;4.96;55.77;101613.06;4938917;28;20450;-68
2023/02/03 04:15:19;;;;;;;15.60;1.35;;;;;;;5.39;54.93;101629.28;4969039;28;20097;-69
2023/02/03 04:17:44;;;;;;;9.82;0.82;;;;;;;5.29;54.75;101621.56;4939995;28;20086;-74
2023/02/03 04:20:10;;;;;;;5.82;0.35;;;;;;;5.11;55.61;101631.16;4941668;28;20613;-75
2023/02/03 04:22:36;;;;;;;10.82;0.73;;;;;;;5.09;55.36;101622.50;4936669;28;20527;-76
2023/02/03 04:25:01;;;;;;;7.28;0.93;;;;;;;4.99;55.59;101618.25;4943239;28;20031;-67
2023/02/03 04:27:27;;;;;;;3.65;0.80;;;;;;;5.09;55.31;101622.50;4938849;28;20062;-71
2023/02/03 04:29:52;;;;;;;7.82;0.60;;;;;;;4.99;56.09;101607.91;4939926;28;20045;-67
2023/02/03 04:32:18;;;;;;;6.13;0.70;;;;;;;5.20;55.21;101615.53;4936253;28;20051;-70
2023/02/03 04:34:45;;;;;;;8.88;0.50;;;;;;;4.70;56.40;101607.97;4941081;28;20035;-68
2023/02/03 04:37:10;;;;;;;9.23;0.50;;;;;;;5.06;55.47;101627.72;4939338;28;20555;-67
2023/02/03 04:39:36;;;;;;;8.15;1.40;;;;;;;4.91;56.20;101630.38;4938886;28;20023;-69
2023/02/03 04:42:01;;;;;;;13.13;0.93;;;;;;;5.09;55.99;101638.06;4943448;28;21028;-68
2023/02/03 04:44:27;;;;;;;13.32;1.58;;;;;;;5.32;55.34;101616.34;4975371;28;20027;-69
2023/02/03 04:46:52;;;;;;;11.93;1.05;;;;;;;4.88;56.46;101613.13;4959531;28;20041;-71
2023/02/03 04:49:18;;;;;;;6.47;0.75;;;;;;;5.34;55.42;101617.19;4943420;28;20085;-71
2023/02/03 04:51:43;;;;;;;11.00;1.95;;;;;;;4.56;57.08;101608.03;4944098;28;20047;-70
2023/02/03 04:54:10;;;;;;;6.25;0.38;;;;;;;5.27;55.89;101634.50;4945335;28;20062;-71
2023/02/03 04:56:36;;;;;;;7.68;1.05;;;;;;;5.07;56.13;101626.84;4944731;28;20523;-75
2023/02/03 04:59:01;;;;;;;13.18;1.20;;;;;;;4.94;56.53;101601.84;4950762;28;20082;-77
2023/02/03 05:01:27;;;;;;;9.20;0.88;;;;;;;4.27;58.46;101572.72;4942522;28;20062;-75
2023/02/03 05:03:54;;;;;;;12.77;0.82;;;;;;;4.86;57.17;101603.63;4946018;28;20055;-76
2023/02/03 05:06:33;;;;;;;13.85;2.22;;;;;;;4.80;57.64;101597.56;4945945;28;20109;-75
2023/02/03 05:09:00;;;;;;;10.43;0.70;;;;;;;4.78;57.03;101583.75;4944243;28;20073;-74
2023/02/03 05:11:26;;;;;;;11.18;1.15;;;;;;;4.95;57.18;101593.22;4941986;28;20035;-76
2023/02/03 05:13:52;;;;;;;7.47;0.70;;;;;;;4.68;57.80;101589.88;4940235;28;20097;-74
2023/02/03 05:16:18;;;;;;;7.65;1.30;;;;;;;5.02;57.25;101594.91;4943239;28;20519;-77
2023/02/03 05:18:46;;;;;;;9.75;0.77;;;;;;;5.18;56.80;101591.34;4947776;28;20050;-68
2023/02/03 05:21:12;;;;;;;8.52;0.80;;;;;;;4.62;57.93;101590.72;4968746;28;20506;-67
2023/02/03 05:23:37;;;;;;;11.52;0.88;;;;;;;5.02;57.02;101592.31;4963886;28;20369;-69
2023/02/03 05:26:03;;;;;;;5.47;0.77;;;;;;;5.17;56.80;101604.34;4964839;28;20440;-68
2023/02/03 05:28:29;;;;;;;9.15;1.10;;;;;;;5.03;57.27;101597.50;4960762;28;20831;-64
2023/02/03 05:31:00;;;;;;;10.95;1.30;;;;;;;5.20;56.75;101587.03;4963109;28;20043;-66
2023/02/03 05:33:26;;;;;;;6.13;0.88;;;;;;;5.23;56.73;101587.03;4958448;28;20054;-67
2023/02/03 05:35:52;;;;;;;7.38;1.30;;;;;;;5.31;56.49;101597.34;4962365;28;20034;-67
2023/02/03 05:38:17;;;;;;;5.85;0.82;;;;;;;4.83;57.56;101574.25;4961793;28;20779;-68
2023/02/03 05:43:27;;;;;;;13.52;1.00;;;;;;;5.00;57.73;101571.59;4959035;28;20181;-68
2023/02/03 05:45:53;;;;;;;15.05;1.50;;;;;;;4.99;57.75;101584.59;4961302;28;20522;-67
2023/02/03 05:48:18;;;;;;;11.27;1.08;;;;;;;4.96;57.62;101571.63;4959151;28;20051;-68
2023/02/03 05:50:44;;;;;;;14.70;2.72;;;;;;;4.90;57.96;101574.25;4961321;28;20110;-68
2023/02/03 05:53:10;;;;;;;14.30;1.75;;;;;;;4.80;57.98;101574.25;4969158;28;20125;-68
2023/02/03 05:55:36;;;;;;;8.50;2.00;;;;;;;4.82;58.16;101556.13;4960183;28;20608;-66
2023/02/03 05:58:03;;;;;;;6.82;1.77;;;;;;;5.10;57.55;101577.59;4960100;28;20125;-66
2023/02/03 06:00:29;;;;;;;14.75;0.95;;;;;;;5.36;56.70;101568.78;4963424;28;20499;-67
2023/02/03 06:03:01;;;;;;;13.60;0.90;;;;;;;4.99;57.93;101562.13;4966222;28;20150;-65
2023/02/03 06:05:27;;;;;;;11.55;0.90;;;;;;;5.07;57.51;101577.59;4958782;28;20453;-75
2023/02/03 06:07:53;;;;;;;12.20;0.90;;;;;;;5.14;57.26;101576.69;4987808;28;20042;-76
2023/02/03 06:10:19;;;;;;;7.30;0.88;;;;;;;4.73;58.61;101557.03;4982251;28;20038;-70
2023/02/03 06:12:44;;;;;;;13.85;1.20;;;;;;;5.11;57.62;101563.78;4960523;28;20077;-69
2023/02/03 06:15:10;;;;;;;11.98;1.60;;;;;;;4.94;58.30;101576.81;4961978;28;20133;-74
2023/02/03 06:17:36;;;;;;;8.52;1.20;;;;;;;5.21;57.20;101570.63;4959885;28;20593;-69
2023/02/03 06:20:06;;;;;;;6.15;1.02;;;;;;;5.16;57.60;101569.78;4960001;28;20034;-68
2023/02/03 06:22:32;;;;;;;9.50;1.38;;;;;;;5.28;57.27;101552.41;4957721;28;20038;-66
2023/02/03 06:24:58;;;;;;;19.60;2.55;;;;;;;4.82;58.25;101556.97;4961222;28;20089;-66
2023/02/03 06:27:23;;;;;;;10.38;1.73;;;;;;;4.94;58.20;101555.22;4957819;28;20637;-68
2023/02/03 06:29:49;;;;;;;11.88;1.65;;;;;;;5.20;57.58;101579.25;4960563;28;20041;-74
2023/02/03 06:32:15;;;;;;;11.88;1.65;;;;;;;5.44;56.86;101572.19;4961892;28;20531;-75
2023/02/03 06:34:41;;;;;;;13.45;1.60;;;;;;;4.94;57.70;101576.81;4968675;28;20030;-73
2023/02/03 06:37:06;;;;;;;15.27;2.38;;;;;;;4.78;58.75;101560.44;4962364;28;20049;-70
2023/02/03 06:39:32;;;;;;;17.50;2.17;;;;;;;4.94;58.17;101561.25;4959030;28;20145;-70
2023/02/03 06:41:57;;;;;;;18.23;1.98;;;;;;;5.45;57.05;101581.69;4967473;28;20049;-68
2023/02/03 06:44:23;;;;;;;14.25;1.40;;;;;;;5.62;57.18;101560.81;4960109;28;20120;-66
2023/02/03 06:46:49;;;;;;;22.58;2.80;;;;;;;5.39;57.71;101568.75;4964365;28;20113;-77
2023/02/03 06:49:18;;;;;;;7.50;1.80;;;;;;;5.36;57.74;101566.19;4967867;28;20054;-77
2023/02/03 06:51:45;;;;;;;16.08;2.42;;;;;;;4.95;58.93;101564.75;4961276;28;20118;-68
2023/02/03 06:54:12;;;;;;;14.75;2.05;;;;;;;5.53;57.04;101576.47;4946091;28;20051;-69
2023/02/03 06:56:38;;;;;;;13.80;2.63;;;;;;;5.77;57.00;101562.41;4945035;28;20453;-68
2023/02/03 06:59:04;;;;;;;10.80;1.63;;;;;;;5.37;58.44;101562.72;4957526;28;20143;-70
2023/02/03 07:01:30;;;;;;;12.60;2.15;;;;;;;5.42;58.21;101567.00;4958439;28;20034;-69
2023/02/03 07:03:57;;;;;;;17.20;1.67;;;;;;;5.08;58.97;101537.00;4943297;28;20506;-69
2023/02/03 07:06:28;;;;;;;14.10;1.25;;;;;;;5.38;58.00;101515.19;4940430;28;20074;-75
2023/02/03 07:08:55;;;;;;;12.97;3.43;;;;;;;5.69;57.61;101546.06;4945821;28;20042;-70
2023/02/03 07:11:21;;;;;;;11.63;1.38;;;;;;;5.76;57.63;101571.06;4940309;28;20310;-67
2023/02/03 07:13:46;;;;;;;15.27;1.92;;;;;;;6.02;57.02;101555.28;4939056;28;20170;-69
2023/02/03 07:16:12;;;;;;;16.73;2.05;;;;;;;5.84;57.83;101567.53;4938188;28;20133;-68
2023/02/03 07:18:38;;;;;;;7.15;1.50;;;;;;;5.69;58.26;101587.56;4939296;28;20061;-68
2023/02/03 07:21:05;;;;;;;12.55;1.70;;;;;;;5.77;58.54;101565.88;4939233;28;20023;-69
2023/02/03 07:23:31;;;;;;;17.52;1.95;;;;;;;5.33;59.49;101568.81;4939672;28;20046;-69
2023/02/03 07:26:04;;;;;;;14.73;2.10;;;;;;;5.25;60.49;101582.66;4939575;28;20031;-68
2023/02/03 07:28:31;;;;;;;16.67;1.73;;;;;;;5.38;60.28;101577.41;4938931;28;20055;-69
2023/02/03 07:30:57;;;;;;;14.90;1.88;;;;;;;5.43;59.78;101573.06;4925666;28;20034;-68
2023/02/03 07:33:22;;;;;;;29.77;3.33;;;;;;;5.10;60.23;101580.19;4939767;28;20047;-74
2023/02/03 07:35:55;;;;;;;15.50;2.03;;;;;;;5.57;58.94;101584.19;4941901;28;20035;-69
2023/02/03 07:38:22;;;;;;;10.13;2.00;;;;;;;5.34;59.45;101594.72;4936221;28;20045;-68
2023/02/03 07:40:47;;;;;;;17.38;2.05;;;;;;;5.50;58.75;101592.88;4938276;28;20035;-69
2023/02/03 07:43:14;;;;;;;17.98;1.65;;;;;;;5.49;59.25;101588.56;4939463;28;20050;-68
2023/02/03 07:45:39;;;;;;;20.08;1.55;;;;;;;5.72;58.39;101587.53;4939710;28;20034;-68
2023/02/03 07:48:05;;;;;;;20.55;2.60;;;;;;;5.58;58.74;101585.91;4941638;28;20047;-67
2023/02/03 07:50:32;;;;;;;15.93;2.55;;;;;;;6.02;57.31;101607.16;4938567;28;20035;-68
2023/02/03 07:53:00;;;;;;;17.83;2.38;;;;;;;5.91;57.59;101593.44;4940947;28;20055;-68
2023/02/03 07:55:27;;;;;;;20.45;3.08;;;;;;;5.33;59.06;101603.38;4939567;28;20830;-68
2023/02/03 07:57:54;;;;;;;16.73;2.42;;;;;;;5.69;58.90;101611.75;4941334;28;20475;-69
2023/02/03 08:00:20;;;;;;;20.48;3.28;;;;;;;5.15;59.98;101606.94;4939500;28;20025;-68
2023/02/03 08:02:46;;;;;;;34.00;3.60;;;;;;;5.31;60.32;101604.25;4939366;28;20097;-67
2023/02/03 08:05:12;;;;;;;11.98;2.38;;;;;;;5.78;59.10;101635.03;4957904;28;20035;-68
2023/02/03 08:07:38;;;;;;;22.48;4.13;;;;;;;5.82;58.80;101641.06;4948415;28;20511;-67
2023/02/03 08:10:04;;;;;;;24.90;3.65;;;;;;;5.42;60.14;101651.72;4941295;28;20130;-67
2023/02/03 08:12:30;;;;;;;21.70;3.90;;;;;;;5.56;59.82;101651.63;4937597;28;20087;-67
2023/02/03 08:14:55;;;;;;;22.90;2.45;;;;;;;5.41;59.60;101670.72;4928679;28;20163;-68
2023/02/03 08:17:21;;;;;;;20.98;3.50;;;;;;;5.40;59.71;101659.50;4939623;28;20492;-68
2023/02/03 08:19:46;;;;;;;18.80;3.47;;;;;;;5.29;59.56;101663.03;4940245;28;20031;-68
2023/02/03 08:22:14;;;;;;;15.82;2.15;;;;;;;5.44;58.49;101665.53;4941773;28;20420;-68
2023/02/03 08:24:44;;;;;;;22.08;3.95;;;;;;;5.44;58.75;101675.91;4947530;28;20078;-67
2023/02/03 08:27:11;;;;;;;16.17;2.58;;;;;;;5.14;59.47;101672.56;4942458;28;20130;-68
2023/02/03 08:29:37;;;;;;;23.15;2.95;;;;;;;4.95;60.07;101681.31;4942890;28;20039;-68
2023/02/03 08:32:02;;;;;;;17.75;2.85;;;;;;;5.45;58.67;101675.03;4943207;28;20077;-67
2023/02/03 08:34:28;;;;;;;18.45;3.70;;;;;;;5.10;57.81;101677.78;4941880;28;20035;-68
2023/02/03 08:36:53;;;;;;;25.33;3.25;;;;;;;4.86;57.94;101660.59;4941860;28;20039;-68
2023/02/03 08:39:19;;;;;;;26.10;4.43;;;;;;;5.32;56.39;101675.97;4940774;28;20618;-68
2023/02/03 08:41:44;;;;;;;26.27;3.20;;;;;;;5.54;55.49;101681.88;4942999;28;20035;-66
2023/02/03 08:44:10;;;;;;;22.90;3.20;;;;;;;5.22;55.58;101691.56;4939037;28;20051;-67
2023/02/03 08:46:36;;;;;;;21.85;3.47;;;;;;;5.55;54.46;101705.22;4943688;28;20046;-68
2023/02/03 08:49:02;;;;;;;26.23;3.08;;;;;;;5.37;54.46;101694.94;4942581;28;20066;-68
2023/02/03 08:51:28;;;;;;;17.58;2.70;;;;;;;5.03;55.63;101695.09;4942395;28;20832;-67
2023/02/03 08:53:54;;;;;;;20.98;3.05;;;;;;;5.49;55.00;101710.44;4940115;28;20046;-68
2023/02/03 08:56:19;;;;;;;14.48;2.85;;;;;;;5.25;55.48;101706.22;4940237;28;20110;-67
2023/02/03 08:58:45;;;;;;;24.05;4.13;;;;;;;5.21;55.63;101702.81;4940031;28;20046;-67
2023/02/03 09:01:14;;;;;;;16.75;3.28;;;;;;;5.83;54.37;101705.03;4940424;28;20058;-68
2023/02/03 09:03:39;;;;;;;30.08;4.90;;;;;;;4.92;56.64;101696.84;4949456;28;20039;-68
2023/02/03 09:06:07;;;;;;;31.60;2.50;;;;;;;5.49;55.59;101699.22;4957533;28;20086;-67
2023/02/03 09:08:33;;;;;;;19.20;2.83;;;;;;;5.94;54.96;101723.13;4958057;28;20062;-68
2023/02/03 09:10:58;;;;;;;24.60;3.13;;;;;;;6.01;55.02;101720.47;4979487;28;20602;-67
2023/02/03 09:13:24;;;;;;;22.58;3.95;;;;;;;6.24;54.19;101732.44;4937937;28;20050;-68
2023/02/03 09:15:49;;;;;;;29.70;4.93;;;;;;;6.55;53.07;101745.16;4942752;28;20043;-68
2023/02/03 09:18:15;;;;;;;27.52;3.60;;;;;;;5.59;55.28;101738.06;4940853;28;20049;-68
2023/02/03 09:20:40;;;;;;;24.27;3.80;;;;;;;5.97;55.04;101736.06;4941023;28;20555;-68
2023/02/03 09:23:06;;;;;;;27.77;3.05;;;;;;;5.98;54.48;101730.03;4938446;28;20065;-67
2023/02/03 09:25:32;;;;;;;25.98;4.85;;;;;;;5.91;54.90;101762.94;4940399;28;20523;-67
2023/02/03 09:27:57;;;;;;;21.60;3.17;;;;;;;5.96;54.76;101771.56;4937895;28;20085;-69
2023/02/03 09:30:23;;;;;;;25.63;4.05;;;;;;;6.17;54.66;101762.78;4940045;28;20904;-67
2023/02/03 09:32:53;;;;;;;25.38;4.28;;;;;;;6.26;54.23;101767.00;4937848;28;20158;-67
2023/02/03 09:35:22;;;;;;;30.33;4.35;;;;;;;6.26;53.97;101772.19;4939815;28;20384;-68
2023/02/03 09:37:47;;;;;;;18.85;3.30;;;;;;;6.24;53.64;101766.19;4953345;28;20050;-67
2023/02/03 09:40:24;;;;;;;26.42;3.95;;;;;;;6.18;53.58;101777.47;4940068;28;20034;-67
2023/02/03 09:43:07;;;;;;;28.67;3.60;;;;;;;6.41;52.64;101777.31;4939311;28;20850;-67
2023/02/03 09:45:33;;;;;;;22.55;4.30;;;;;;;5.90;53.97;101784.56;4937571;28;20034;-68
2023/02/03 09:48:29;;;;;;;27.40;2.70;;;;;;;6.06;53.36;101785.31;4938554;28;20085;-68
2023/02/03 09:50:54;;;;;;;25.30;4.10;;;;;;;6.75;51.97;101791.75;4941315;28;20043;-68
2023/02/03 09:53:38;;;;;;;29.83;4.57;;;;;;;7.12;51.33;101802.66;4939084;28;20105;-68
2023/02/03 09:56:03;;;;;;;38.15;4.47;;;;;;;6.70;50.78;101804.78;4941982;28;20055;-69
2023/02/03 09:58:33;;;;;;;33.08;5.18;;;;;;;7.06;50.76;101813.09;4941162;28;20126;-67
2023/02/03 10:01:01;;;;;;;26.77;4.00;;;;;;;6.37;51.67;101811.97;4943024;28;20046;-68
2023/02/03 10:03:44;;;;;;;25.63;4.53;;;;;;;6.71;51.41;101822.09;4941802;28;20047;-69
2023/02/03 10:06:31;;;;;;;34.88;3.38;;;;;;;6.61;51.35;101812.66;4939855;28;20074;-66
2023/02/03 10:09:25;;;;;;;20.48;3.45;;;;;;;6.56;51.36;101817.88;4935944;28;20109;-68
2023/02/03 10:12:26;;;;;;;34.25;5.07;;;;;;;6.26;51.50;101826.72;4934712;28;20476;-67
2023/02/03 10:15:00;;;;;;;24.33;3.72;;;;;;;6.88;50.29;101835.78;4934781;28;20054;-68
2023/02/03 10:17:29;;;;;;;19.83;3.97;;;;;;;7.21;49.52;101832.88;4935886;28;20035;-68
2023/02/03 10:20:20;;;;;;;30.40;4.53;;;;;;;7.02;49.96;101842.59;4943166;28;20045;-68
2023/02/03 10:22:53;;;;;;;27.20;3.35;;;;;;;6.56;51.16;101848.22;4937310;28;20750;-69
2023/02/03 10:25:30;;;;;;;32.30;4.25;;;;;;;6.98;50.20;101856.53;4932812;28;20115;-69
2023/02/03 10:28:01;;;;;;;25.73;3.55;;;;;;;6.47;51.24;101873.34;4937067;28;20645;-68
2023/02/03 10:30:31;;;;;;;29.80;4.80;;;;;;;6.34;51.24;101858.72;4936135;28;20031;-68
2023/02/03 10:33:09;;;;;;;39.08;6.05;;;;;;;6.62;49.83;101858.53;4935362;28;20427;-67
2023/02/03 10:36:04;;;;;;;25.35;4.13;;;;;;;6.38;48.70;101859.59;4941656;28;20039;-68
2023/02/03 10:39:12;;;;;;;25.52;3.10;;;;;;;6.74;47.50;101858.44;4947267;28;20049;-68
2023/02/03 10:41:38;;;;;;;24.65;4.05;;;;;;;7.13;45.63;101869.34;4943110;28;20077;-68
2023/02/03 10:44:06;;;;;;;30.52;3.60;;;;;;;7.61;45.27;101874.09;4957898;28;20050;-69
2023/02/03 10:46:34;;;;;;;20.98;3.60;;;;;;;7.31;45.39;101886.50;4954897;28;20038;-69
2023/02/03 10:49:01;;;;;;;25.38;5.00;;;;;;;6.77;46.22;101873.13;4937952;28;20050;-67
2023/02/03 10:51:50;;;;;;;38.35;5.03;;;;;;;6.28;47.66;101890.81;4935254;28;20247;-68
2023/02/03 10:54:28;;;;;;;20.73;4.75;;;;;;;6.61;46.98;101903.56;4935294;28;20039;-69
2023/02/03 10:56:56;;;;;;;22.08;4.80;;;;;;;6.32;47.43;101904.63;4933850;28;20042;-67
2023/02/03 10:59:35;;;;;;;29.02;3.10;;;;;;;7.32;45.38;101889.09;4954820;28;20035;-68
2023/02/03 11:02:08;;;;;;;15.10;3.25;;;;;;;7.15;44.98;101891.00;4954915;28;20113;-68
2023/02/03 11:04:34;;;;;;;31.75;2.97;;;;;;;7.05;44.80;101889.38;4937314;28;20583;-69
2023/02/03 11:07:05;;;;;;;23.27;3.25;;;;;;;7.32;44.15;101912.50;4938811;28;20041;-68
2023/02/03 11:09:40;;;;;;;23.48;4.38;;;;;;;6.86;44.04;101918.13;4936995;28;20082;-68
2023/02/03 11:12:06;;;;;;;25.45;2.47;;;;;;;6.61;44.32;101906.16;4935293;28;20059;-67
2023/02/03 11:14:45;;;;;;;23.17;2.85;;;;;;;6.30;44.43;101927.13;4938254;28;20050;-69
2023/02/03 11:17:21;;;;;;;21.35;3.65;;;;;;;6.76;43.98;101915.59;4938714;28;20362;-68
2023/02/03 11:19:49;;;;;;;21.02;2.20;;;;;;;6.12;45.14;101914.22;4939444;28;20063;-67
2023/02/03 11:22:35;;;;;;;22.00;3.72;;;;;;;6.41;44.76;101914.09;4936918;28;20115;-68
2023/02/03 11:25:04;;;;;;;19.13;3.17;;;;;;;6.99;44.54;101920.63;4946411;28;20488;-69
2023/02/03 11:27:31;;;;;;;29.15;4.03;;;;;;;7.44;43.66;101918.47;4936202;28;20043;-69
2023/02/03 11:30:25;;;;;;;27.45;3.92;;;;;;;7.10;44.69;101916.19;4938510;28;20039;-68
2023/02/03 11:32:51;;;;;;;19.55;3.28;;;;;;;7.23;44.48;101936.00;4939110;28;20046;-67
2023/02/03 11:35:19;;;;;;;12.10;3.03;;;;;;;6.91;45.32;101923.28;4935679;28;20073;-68
2023/02/03 11:37:50;;;;;;;36.70;4.85;;;;;;;6.90;46.02;101934.53;4940657;28;20361;-67
2023/02/03 11:40:19;;;;;;;33.37;4.87;;;;;;;6.02;48.07;101939.34;4944780;28;20078;-67
2023/02/03 11:42:59;;;;;;;36.80;3.90;;;;;;;6.14;47.53;101946.22;4937495;28;20050;-69